createdAt,value
2023-03-01T00:01:33.918Z,9.43
2023-03-01T00:04:01.337Z,10.60
2023-03-01T00:06:29.214Z,9.70
2023-03-01T00:08:56.653Z,9.80
2023-03-01T00:11:25.110Z,10.70
2023-03-01T00:13:53.457Z,10.67
2023-03-01T00:16:22.380Z,10.23
2023-03-01T00:18:49.834Z,10.23
2023-03-01T00:21:17.007Z,10.07
2023-03-01T00:23:44.286Z,10.97
2023-03-01T00:26:12.604Z,10.37
2023-03-01T00:28:39.813Z,10.43
2023-03-01T00:31:07.980Z,9.37
2023-03-01T00:33:35.282Z,10.50
2023-03-01T00:36:02.815Z,10.27
2023-03-01T00:38:30.305Z,9.73
2023-03-01T00:40:57.471Z,11.37
2023-03-01T00:43:24.593Z,12.83
2023-03-01T00:45:51.784Z,12.47
2023-03-01T00:48:18.911Z,11.00
2023-03-01T00:50:46.057Z,10.40
2023-03-01T00:53:16.671Z,10.73
2023-03-01T00:55:44.252Z,10.40
2023-03-01T00:58:12.322Z,10.07
2023-03-01T01:00:45.498Z,9.47
2023-03-01T01:03:12.698Z,10.50
2023-03-01T01:05:39.807Z,9.83
2023-03-01T01:08:07.157Z,10.00
2023-03-01T01:10:35.675Z,10.10
2023-03-01T01:13:02.867Z,9.73
2023-03-01T01:15:30.191Z,10.20
2023-03-01T01:17:57.490Z,9.10
2023-03-01T01:20:24.614Z,9.77
2023-03-01T01:22:52.230Z,9.87
2023-03-01T01:25:19.463Z,10.63
2023-03-01T01:27:46.712Z,10.93
2023-03-01T01:30:14.169Z,10.30
2023-03-01T01:32:41.318Z,10.97
2023-03-01T01:35:08.612Z,9.47
2023-03-01T01:37:35.803Z,11.77
2023-03-01T01:40:05.156Z,9.60
2023-03-01T01:42:32.330Z,10.27
2023-03-01T01:45:17.995Z,10.07
2023-03-01T01:47:49.559Z,11.43
2023-03-01T01:50:18.599Z,9.40
2023-03-01T01:52:47.449Z,9.37
2023-03-01T01:55:21.865Z,8.97
2023-03-01T01:57:56.665Z,9.67
2023-03-01T02:00:26.968Z,9.90
2023-03-01T02:03:06.866Z,9.33
2023-03-01T02:05:54.991Z,10.23
2023-03-01T02:08:24.579Z,9.10
2023-03-01T02:10:52.867Z,9.97
2023-03-01T02:13:19.655Z,10.03
2023-03-01T02:15:46.675Z,10.33
2023-03-01T02:18:18.205Z,10.30
2023-03-01T02:21:06.751Z,9.57
2023-03-01T02:23:34.780Z,9.17
2023-03-01T02:26:15.039Z,10.03
2023-03-01T02:28:44.902Z,10.77
2023-03-01T02:31:34.117Z,9.97
2023-03-01T02:34:11.750Z,9.83
2023-03-01T02:36:58.612Z,10.20
2023-03-01T02:39:28.751Z,9.60
2023-03-01T02:41:56.409Z,9.83
2023-03-01T02:44:23.818Z,8.87
2023-03-01T02:46:52.508Z,9.57
2023-03-01T02:49:25.290Z,9.53
2023-03-01T02:51:52.489Z,9.93
2023-03-01T02:54:38.001Z,9.50
2023-03-01T02:57:05.182Z,10.37
2023-03-01T02:59:33.414Z,10.23
2023-03-01T03:02:02.111Z,9.53
2023-03-01T03:04:29.268Z,10.17
2023-03-01T03:06:56.414Z,10.67
2023-03-01T03:09:23.595Z,11.30
2023-03-01T03:11:50.874Z,10.43
2023-03-01T03:14:18.608Z,10.70
2023-03-01T03:16:47.508Z,10.67
2023-03-01T03:19:14.945Z,11.63
2023-03-01T03:21:42.102Z,9.80
2023-03-01T03:24:09.261Z,11.10
2023-03-01T03:26:36.451Z,10.70
2023-03-01T03:29:03.613Z,9.37
2023-03-01T03:31:30.921Z,10.43
2023-03-01T03:33:59.932Z,11.20
2023-03-01T03:36:27.280Z,11.20
2023-03-01T03:38:54.423Z,11.40
2023-03-01T03:41:21.658Z,10.77
2023-03-01T03:43:49.928Z,11.27
2023-03-01T03:46:18.025Z,11.17
2023-03-01T03:48:46.065Z,11.67
2023-03-01T03:51:14.292Z,11.80
2023-03-01T03:53:43.650Z,10.70
2023-03-01T03:56:11.078Z,10.67
2023-03-01T03:58:38.369Z,11.20
2023-03-01T04:01:05.791Z,10.53
2023-03-01T04:03:33.475Z,11.13
2023-03-01T04:06:01.609Z,10.70
2023-03-01T04:08:29.400Z,10.57
2023-03-01T04:11:24.571Z,11.03
2023-03-01T04:13:52.334Z,10.60
2023-03-01T04:16:19.927Z,11.43
2023-03-01T04:18:47.458Z,10.00
2023-03-01T04:21:14.650Z,11.07
2023-03-01T04:23:42.410Z,10.63
2023-03-01T04:26:09.916Z,10.10
2023-03-01T04:28:38.837Z,10.57
2023-03-01T04:31:18.238Z,11.13
2023-03-01T04:33:45.467Z,11.07
2023-03-01T04:36:13.315Z,10.37
2023-03-01T04:38:40.621Z,12.17
2023-03-01T04:41:08.680Z,10.30
2023-03-01T04:43:35.870Z,11.33
2023-03-01T04:46:21.731Z,11.47
2023-03-01T04:48:49.013Z,10.67
2023-03-01T04:51:16.777Z,10.93
2023-03-01T04:53:44.441Z,11.23
2023-03-01T04:56:11.821Z,12.43
2023-03-01T04:58:39.426Z,11.20
2023-03-01T05:01:16.063Z,11.13
2023-03-01T05:03:44.582Z,10.53
2023-03-01T05:06:12.198Z,12.10
2023-03-01T05:08:39.986Z,10.87
2023-03-01T05:11:09.854Z,10.77
2023-03-01T05:13:37.982Z,11.17
2023-03-01T05:16:06.236Z,10.93
2023-03-01T05:18:34.134Z,11.57
2023-03-01T05:21:06.344Z,11.30
2023-03-01T05:23:34.524Z,11.00
2023-03-01T05:26:03.373Z,11.37
2023-03-01T05:28:30.622Z,11.07
2023-03-01T05:30:58.158Z,11.27
2023-03-01T05:33:25.813Z,11.23
2023-03-01T05:35:54.543Z,10.90
2023-03-01T05:38:22.233Z,11.70
2023-03-01T05:40:49.922Z,11.27
2023-03-01T05:43:18.046Z,11.63
2023-03-01T05:45:45.579Z,11.77
2023-03-01T05:48:13.642Z,11.87
2023-03-01T05:50:45.620Z,10.77
2023-03-01T05:53:23.744Z,11.23
2023-03-01T05:55:50.895Z,10.97
2023-03-01T05:58:20.519Z,9.83
2023-03-01T06:00:49.054Z,10.83
2023-03-01T06:03:18.194Z,12.17
2023-03-01T06:05:46.190Z,11.20
2023-03-01T06:08:13.547Z,10.87
2023-03-01T06:10:41.674Z,11.47
2023-03-01T06:13:08.542Z,10.97
2023-03-01T06:15:35.371Z,11.27
2023-03-01T06:18:02.493Z,12.50
2023-03-01T06:20:30.071Z,11.80
2023-03-01T06:22:57.710Z,11.77
2023-03-01T06:25:25.970Z,12.57
2023-03-01T06:27:56.043Z,12.60
2023-03-01T06:30:24.143Z,11.17
2023-03-01T06:32:51.484Z,11.67
2023-03-01T06:35:19.203Z,12.73
2023-03-01T06:37:47.317Z,12.13
2023-03-01T06:40:15.007Z,11.60
2023-03-01T06:42:44.227Z,11.90
2023-03-01T06:45:11.367Z,11.77
2023-03-01T06:47:38.332Z,11.80
2023-03-01T06:50:05.464Z,12.70
2023-03-01T06:52:32.602Z,11.87
2023-03-01T06:54:59.788Z,12.00
2023-03-01T06:57:26.906Z,12.50
2023-03-01T06:59:53.751Z,13.23
2023-03-01T07:02:20.655Z,12.17
2023-03-01T07:04:47.430Z,12.00
2023-03-01T07:07:14.306Z,11.07
2023-03-01T07:09:41.024Z,12.40
2023-03-01T07:12:08.860Z,12.87
2023-03-01T07:14:35.636Z,12.83
2023-03-01T07:17:02.620Z,12.43
2023-03-01T07:19:29.818Z,12.57
2023-03-01T07:21:56.843Z,12.23
2023-03-01T07:24:23.777Z,11.63
2023-03-01T07:26:51.464Z,12.43
2023-03-01T07:29:19.136Z,12.37
2023-03-01T07:31:46.272Z,12.23
2023-03-01T07:34:13.432Z,11.90
2023-03-01T07:36:43.407Z,12.23
2023-03-01T07:39:11.510Z,12.13
2023-03-01T07:41:38.696Z,10.57
2023-03-01T07:44:05.913Z,11.97
2023-03-01T07:46:33.285Z,12.67
2023-03-01T07:49:00.589Z,12.30
2023-03-01T07:51:27.816Z,11.97
2023-03-01T07:53:55.074Z,12.77
2023-03-01T07:56:23.053Z,12.60
2023-03-01T07:58:51.225Z,11.93
2023-03-01T08:01:19.799Z,12.20
2023-03-01T08:03:47.056Z,12.13
2023-03-01T08:06:15.331Z,12.07
2023-03-01T08:08:42.832Z,12.70
2023-03-01T08:11:12.038Z,12.73
2023-03-01T08:13:39.273Z,16.50
2023-03-01T08:16:08.128Z,14.63
2023-03-01T08:18:35.591Z,12.53
2023-03-01T08:21:03.749Z,12.23
2023-03-01T08:23:31.031Z,12.73
2023-03-01T08:26:04.937Z,12.87
2023-03-01T08:28:32.128Z,12.47
2023-03-01T08:30:59.297Z,13.57
2023-03-01T08:33:26.467Z,13.23
2023-03-01T08:35:53.649Z,11.33
2023-03-01T08:38:20.845Z,11.87
2023-03-01T08:40:48.044Z,11.37
2023-03-01T08:43:15.232Z,11.70
2023-03-01T08:45:42.412Z,10.40
2023-03-01T08:48:09.604Z,11.07
2023-03-01T08:50:36.735Z,11.20
2023-03-01T08:53:03.882Z,11.70
2023-03-01T08:55:31.269Z,12.57
2023-03-01T08:58:00.490Z,10.53
2023-03-01T09:00:27.663Z,10.40
2023-03-01T09:02:54.908Z,9.90
2023-03-01T09:05:22.037Z,9.70
2023-03-01T09:07:49.243Z,9.53
2023-03-01T09:10:16.460Z,9.83
2023-03-01T09:12:43.660Z,9.43
2023-03-01T09:15:11.098Z,10.60
2023-03-01T09:17:38.268Z,9.60
2023-03-01T09:20:06.848Z,10.60
2023-03-01T09:22:37.039Z,10.53
2023-03-01T09:25:04.314Z,9.77
2023-03-01T09:27:31.472Z,10.00
2023-03-01T09:29:58.647Z,9.00
2023-03-01T09:32:25.907Z,9.20
2023-03-01T09:35:04.656Z,10.43
2023-03-01T09:37:33.270Z,10.30
2023-03-01T09:40:00.564Z,9.63
2023-03-01T09:42:29.303Z,10.27
2023-03-01T09:45:02.126Z,10.07
2023-03-01T09:47:31.746Z,10.17
2023-03-01T09:50:10.979Z,9.03
2023-03-01T09:52:41.563Z,9.83
2023-03-01T09:55:13.213Z,9.30
2023-03-01T09:57:54.190Z,9.97
2023-03-01T10:00:39.953Z,10.10
2023-03-01T10:03:28.341Z,9.47
2023-03-01T10:06:01.112Z,10.13
2023-03-01T10:08:36.889Z,11.63
2023-03-01T10:11:05.578Z,19.07
2023-03-01T10:13:53.844Z,9.13
2023-03-01T10:16:49.724Z,8.90
2023-03-01T10:19:37.406Z,9.63
2023-03-01T10:22:14.085Z,8.40
2023-03-01T10:24:41.016Z,29.40
2023-03-01T10:27:17.693Z,17.33
2023-03-01T10:30:23.660Z,9.57
2023-03-01T10:32:53.034Z,9.57
2023-03-01T10:35:24.528Z,9.73
2023-03-01T10:38:11.156Z,9.30
2023-03-01T10:40:51.374Z,8.50
2023-03-01T10:43:19.119Z,8.20
2023-03-01T10:45:46.315Z,8.40
2023-03-01T10:48:35.971Z,10.33
2023-03-01T10:51:03.112Z,13.57
2023-03-01T10:53:35.974Z,11.00
2023-03-01T10:56:03.159Z,8.53
2023-03-01T10:58:31.115Z,8.50
2023-03-01T11:01:03.092Z,8.63
2023-03-01T11:03:32.076Z,8.30
2023-03-01T11:06:05.224Z,7.67
2023-03-01T11:08:35.104Z,6.97
2023-03-01T11:11:21.972Z,8.40
2023-03-01T11:13:55.216Z,8.67
2023-03-01T11:16:32.597Z,8.23
2023-03-01T11:19:01.061Z,7.13
2023-03-01T11:21:32.236Z,7.20
2023-03-01T11:24:01.734Z,7.40
2023-03-01T11:26:30.476Z,7.43
2023-03-01T11:29:03.224Z,7.32
2023-03-01T11:31:31.023Z,8.27
2023-03-01T11:34:15.951Z,7.13
2023-03-01T11:36:57.682Z,7.22
2023-03-01T11:40:00.832Z,7.43
2023-03-01T11:42:42.774Z,6.43
2023-03-01T11:45:13.186Z,6.32
2023-03-01T11:47:59.017Z,9.38
2023-03-01T11:50:47.159Z,10.23
2023-03-01T11:53:45.637Z,6.80
2023-03-01T11:56:41.636Z,6.55
2023-03-01T11:59:40.540Z,6.78
2023-03-01T12:02:25.578Z,7.28
2023-03-01T12:05:21.655Z,8.13
2023-03-01T12:07:56.146Z,6.88
2023-03-01T12:10:57.913Z,6.15
2023-03-01T12:13:53.193Z,7.18
2023-03-01T12:16:39.213Z,6.45
2023-03-01T12:19:18.826Z,6.90
2023-03-01T12:22:10.515Z,6.82
2023-03-01T12:24:58.463Z,6.63
2023-03-01T12:27:59.086Z,6.97
2023-03-01T12:30:59.945Z,7.10
2023-03-01T12:34:18.537Z,6.85
2023-03-01T12:37:09.246Z,6.30
2023-03-01T12:39:55.000Z,6.93
2023-03-01T12:42:22.125Z,6.63
2023-03-01T12:44:51.723Z,6.82
2023-03-01T12:47:45.898Z,6.85
2023-03-01T12:50:20.176Z,6.72
2023-03-01T12:52:54.377Z,6.57
2023-03-01T12:55:31.292Z,7.05
2023-03-01T12:58:26.289Z,7.07
2023-03-01T13:01:22.386Z,6.63
2023-03-01T13:03:49.331Z,6.53
2023-03-01T13:06:43.522Z,6.93
2023-03-01T13:09:17.155Z,6.70
2023-03-01T13:11:44.398Z,8.38
2023-03-01T13:14:23.957Z,7.15
2023-03-01T13:16:55.110Z,7.13
2023-03-01T13:19:22.901Z,9.00
2023-03-01T13:21:51.692Z,7.10
2023-03-01T13:24:41.187Z,6.75
2023-03-01T13:27:08.491Z,7.00
2023-03-01T13:29:56.865Z,8.75
2023-03-01T13:32:48.868Z,8.13
2023-03-01T13:35:18.448Z,7.38
2023-03-01T13:37:45.654Z,7.45
2023-03-01T13:40:21.844Z,6.90
2023-03-01T13:43:04.291Z,6.32
2023-03-01T13:45:41.817Z,7.65
2023-03-01T13:48:17.805Z,6.60
2023-03-01T13:51:16.759Z,7.05
2023-03-01T13:53:46.783Z,6.32
2023-03-01T13:56:25.498Z,7.32
2023-03-01T13:59:03.657Z,6.68
2023-03-01T14:01:36.363Z,6.85
2023-03-01T14:04:19.562Z,7.00
2023-03-01T14:06:46.466Z,6.32
2023-03-01T14:09:21.628Z,6.57
2023-03-01T14:11:51.425Z,6.57
2023-03-01T14:14:40.058Z,7.07
2023-03-01T14:17:37.669Z,7.03
2023-03-01T14:20:18.197Z,6.95
2023-03-01T14:22:46.997Z,7.68
2023-03-01T14:25:30.837Z,7.40
2023-03-01T14:28:04.552Z,7.50
2023-03-01T14:30:41.338Z,6.90
2023-03-01T14:33:25.040Z,7.80
2023-03-01T14:36:08.731Z,7.82
2023-03-01T14:38:39.836Z,7.47
2023-03-01T14:41:13.803Z,7.15
2023-03-01T14:43:45.709Z,7.38
2023-03-01T14:46:35.815Z,7.80
2023-03-01T14:49:10.843Z,7.43
2023-03-01T14:51:39.592Z,10.30
2023-03-01T14:54:32.855Z,7.88
2023-03-01T14:57:02.162Z,7.63
2023-03-01T14:59:29.398Z,7.85
2023-03-01T15:01:58.822Z,7.70
2023-03-01T15:04:27.427Z,8.13
2023-03-01T15:06:56.609Z,7.63
2023-03-01T15:09:23.958Z,8.82
2023-03-01T15:11:51.138Z,8.98
2023-03-01T15:14:47.360Z,9.15
2023-03-01T15:17:32.053Z,11.38
2023-03-01T15:19:59.482Z,12.02
2023-03-01T15:22:28.168Z,9.52
2023-03-01T15:24:56.078Z,9.63
2023-03-01T15:27:28.325Z,8.73
2023-03-01T15:30:00.205Z,9.13
2023-03-01T15:32:30.198Z,8.98
2023-03-01T15:34:58.343Z,8.38
2023-03-01T15:37:44.001Z,7.55
2023-03-01T15:40:25.718Z,7.45
2023-03-01T15:42:53.225Z,7.75
2023-03-01T15:45:25.768Z,7.88
2023-03-01T15:47:54.619Z,7.80
2023-03-01T15:50:31.260Z,7.53
2023-03-01T15:53:00.155Z,7.05
2023-03-01T15:55:31.245Z,6.93
2023-03-01T15:58:03.081Z,7.68
2023-03-01T16:00:30.538Z,8.20
2023-03-01T16:02:57.896Z,7.35
2023-03-01T16:05:26.552Z,8.50
2023-03-01T16:07:54.213Z,8.18
2023-03-01T16:10:21.742Z,8.17
2023-03-01T16:12:49.061Z,8.20
2023-03-01T16:15:19.185Z,7.83
2023-03-01T16:17:46.551Z,7.57
2023-03-01T16:20:27.141Z,7.90
2023-03-01T16:22:55.380Z,7.97
2023-03-01T16:25:22.837Z,8.17
2023-03-01T16:27:51.332Z,9.60
2023-03-01T16:30:20.408Z,8.33
2023-03-01T16:32:48.502Z,7.47
2023-03-01T16:35:17.808Z,7.07
2023-03-01T16:37:45.315Z,6.80
2023-03-01T16:40:23.063Z,7.70
2023-03-01T16:42:51.303Z,7.03
2023-03-01T16:45:24.416Z,7.27
2023-03-01T16:47:55.105Z,6.97
2023-03-01T16:50:22.959Z,6.67
2023-03-01T16:52:50.140Z,7.47
2023-03-01T16:55:17.413Z,7.57
2023-03-01T16:57:44.880Z,8.37
2023-03-01T17:00:13.995Z,7.37
2023-03-01T17:02:42.345Z,8.77
2023-03-01T17:05:11.031Z,7.63
2023-03-01T17:07:38.420Z,7.83
2023-03-01T17:10:08.915Z,7.80
2023-03-01T17:12:36.344Z,7.73
2023-03-01T17:15:03.909Z,7.13
2023-03-01T17:17:32.097Z,7.67
2023-03-01T17:19:59.322Z,8.70
2023-03-01T17:22:26.546Z,7.27
2023-03-01T17:24:53.765Z,8.30
2023-03-01T17:27:21.009Z,8.43
2023-03-01T17:29:48.162Z,9.13
2023-03-01T17:32:15.561Z,7.27
2023-03-01T17:34:42.844Z,8.27
2023-03-01T17:37:10.094Z,8.20
2023-03-01T17:39:37.625Z,8.07
2023-03-01T17:42:06.285Z,7.27
2023-03-01T17:44:34.710Z,7.70
2023-03-01T17:47:02.692Z,7.87
2023-03-01T17:49:29.900Z,6.90
2023-03-01T17:51:57.541Z,8.80
2023-03-01T17:54:24.908Z,10.70
2023-03-01T17:56:52.477Z,7.67
2023-03-01T17:59:19.682Z,6.70
2023-03-01T18:01:46.986Z,6.70
2023-03-01T18:04:14.392Z,7.83
2023-03-01T18:06:41.687Z,7.53
2023-03-01T18:09:08.977Z,13.73
2023-03-01T18:11:36.775Z,13.53
2023-03-01T18:14:04.701Z,10.13
2023-03-01T18:16:34.248Z,7.83
2023-03-01T18:19:02.561Z,9.00
2023-03-01T18:21:30.853Z,7.37
2023-03-01T18:23:59.718Z,7.27
2023-03-01T18:26:27.901Z,6.97
2023-03-01T18:28:58.082Z,7.80
2023-03-01T18:31:25.653Z,9.67
2023-03-01T18:33:54.867Z,9.17
2023-03-01T18:36:26.152Z,9.43
2023-03-01T18:38:56.146Z,8.10
2023-03-01T18:41:24.151Z,9.37
2023-03-01T18:43:51.528Z,8.07
2023-03-01T18:46:20.406Z,8.33
2023-03-01T18:48:47.807Z,8.13
2023-03-01T18:51:16.441Z,7.60
2023-03-01T18:53:43.661Z,7.67
2023-03-01T18:56:11.272Z,7.30
2023-03-01T18:58:38.668Z,6.87
2023-03-01T19:01:08.342Z,7.37
2023-03-01T19:03:36.302Z,7.83
2023-03-01T19:06:05.199Z,10.57
2023-03-01T19:08:32.697Z,8.83
2023-03-01T19:11:00.643Z,8.27
2023-03-01T19:13:27.962Z,7.40
2023-03-01T19:16:03.672Z,8.00
2023-03-01T19:18:30.884Z,8.37
2023-03-01T19:21:04.173Z,7.73
2023-03-01T19:23:34.905Z,9.37
2023-03-01T19:26:09.894Z,9.73
2023-03-01T19:28:39.518Z,7.63
2023-03-01T19:31:08.212Z,7.70
2023-03-01T19:33:35.869Z,8.03
2023-03-01T19:36:04.262Z,8.30
2023-03-01T19:38:31.487Z,7.43
2023-03-01T19:40:58.388Z,9.10
2023-03-01T19:43:25.356Z,7.87
2023-03-01T19:45:53.857Z,7.33
2023-03-01T19:48:21.219Z,8.13
2023-03-01T19:50:48.493Z,7.70
2023-03-01T19:53:16.073Z,8.50
2023-03-01T19:55:43.760Z,9.67
2023-03-01T19:58:11.218Z,8.00
2023-03-01T20:00:39.660Z,7.23
2023-03-01T20:03:07.227Z,7.70
2023-03-01T20:05:35.421Z,7.77
2023-03-01T20:08:03.268Z,8.13
2023-03-01T20:10:31.824Z,9.17
2023-03-01T20:12:59.530Z,7.37
2023-03-01T20:15:26.798Z,7.73
2023-03-01T20:17:54.057Z,8.23
2023-03-01T20:20:21.401Z,8.37
2023-03-01T20:22:48.642Z,6.80
2023-03-01T20:25:16.074Z,8.53
2023-03-01T20:27:47.403Z,7.07
2023-03-01T20:30:16.084Z,7.87
2023-03-01T20:32:43.409Z,7.87
2023-03-01T20:35:11.496Z,7.30
2023-03-01T20:37:39.116Z,8.77
2023-03-01T20:40:09.548Z,6.97
2023-03-01T20:42:36.749Z,7.00
2023-03-01T20:45:04.334Z,7.13
2023-03-01T20:47:31.507Z,7.70
2023-03-01T20:50:01.468Z,7.07
2023-03-01T20:52:34.192Z,6.97
2023-03-01T20:55:03.865Z,7.27
2023-03-01T20:57:31.743Z,7.13
2023-03-01T20:59:58.982Z,6.70
2023-03-01T21:02:26.151Z,7.20
2023-03-01T21:04:53.388Z,6.47
2023-03-01T21:07:20.679Z,7.50
2023-03-01T21:09:48.089Z,7.13
2023-03-01T21:12:15.644Z,6.57
2023-03-01T21:14:42.862Z,6.70
2023-03-01T21:17:14.444Z,6.57
2023-03-01T21:19:44.839Z,7.67
2023-03-01T21:22:14.954Z,6.83
2023-03-01T21:24:42.409Z,7.27
2023-03-01T21:27:09.966Z,6.47
2023-03-01T21:29:41.299Z,7.97
2023-03-01T21:32:09.138Z,7.23
2023-03-01T21:34:37.798Z,11.43
2023-03-01T21:37:06.152Z,7.33
2023-03-01T21:39:33.901Z,6.90
2023-03-01T21:42:01.913Z,6.40
2023-03-01T21:44:30.041Z,6.40
2023-03-01T21:46:58.897Z,7.10
2023-03-01T21:49:26.457Z,6.27
2023-03-01T21:51:53.746Z,7.30
2023-03-01T21:54:21.273Z,6.50
2023-03-01T21:56:48.927Z,7.93
2023-03-01T21:59:17.533Z,7.03
2023-03-01T22:01:45.000Z,7.60
2023-03-01T22:04:13.194Z,11.83
2023-03-01T22:06:42.429Z,7.50
2023-03-01T22:09:12.773Z,6.70
2023-03-01T22:11:41.337Z,7.13
2023-03-01T22:14:09.239Z,6.90
2023-03-01T22:16:37.669Z,7.17
2023-03-01T22:19:05.835Z,6.93
2023-03-01T22:21:33.554Z,6.90
2023-03-01T22:24:00.830Z,8.67
2023-03-01T22:26:35.888Z,14.53
2023-03-01T22:29:04.698Z,7.50
2023-03-01T22:31:31.973Z,6.73
2023-03-01T22:33:59.929Z,7.50
2023-03-01T22:36:27.680Z,6.77
2023-03-01T22:39:00.037Z,7.23
2023-03-01T22:41:28.763Z,6.10
2023-03-01T22:43:56.042Z,7.17
2023-03-01T22:46:23.334Z,6.97
2023-03-01T22:48:50.770Z,5.90
2023-03-01T22:51:19.216Z,6.53
2023-03-01T22:53:48.234Z,6.00
2023-03-01T22:56:16.949Z,7.27
2023-03-01T22:58:44.585Z,6.33
2023-03-01T23:01:19.048Z,7.17
2023-03-01T23:03:46.522Z,6.83
2023-03-01T23:06:14.183Z,6.07
2023-03-01T23:08:41.480Z,8.17
2023-03-01T23:11:13.037Z,6.53
2023-03-01T23:13:40.552Z,6.70
2023-03-01T23:16:07.974Z,8.37
2023-03-01T23:18:35.294Z,6.43
2023-03-01T23:21:07.942Z,7.00
2023-03-01T23:23:35.138Z,7.47
2023-03-01T23:26:02.421Z,7.63
2023-03-01T23:28:31.512Z,6.87
2023-03-01T23:31:00.758Z,7.73
2023-03-01T23:33:28.665Z,7.10
2023-03-01T23:35:56.012Z,6.80
2023-03-01T23:38:23.220Z,7.47
2023-03-01T23:40:50.373Z,7.27
2023-03-01T23:43:18.392Z,6.70
2023-03-01T23:45:45.550Z,6.80
2023-03-01T23:48:15.840Z,7.47
2023-03-01T23:50:43.027Z,7.70
2023-03-01T23:53:11.476Z,9.27
2023-03-01T23:55:39.714Z,7.17
2023-03-01T23:58:07.046Z,9.87
